Time;durP1;ratioP1;P1;durP2;ratioP2;P2;SDS_P1;SDS_P2;PMS_P1;PMS_P2;Temp;Humidity;BMP_temperature;BMP_pressure;BME280_temperature;BME280_humidity;BME280_pressure;Samples;Min_cycle;Max_cycle;Signal;HPM_P1;HPM_P2
2022/10/08 00:01:24;;;;;;;;;;;;;;;19.44;52.86;101458.84;5024760;28;20055;-58
2022/10/08 00:03:50;;;;;;;;;;;;;;;19.44;52.81;101464.22;5025057;28;19909;-58
2022/10/08 00:06:19;;;;;;;;;;;;;;;19.45;52.72;101465.06;5007341;28;19909;-58
2022/10/08 00:09:03;;;;;;;;;;;;;;;19.44;52.66;101471.47;5024952;28;19917;-56
2022/10/08 00:11:32;;;;;;;;;;;;;;;19.43;52.77;101470.63;5024232;28;19913;-58
2022/10/08 00:13:58;;;;;;;;;;;;;;;19.43;53.10;101478.72;5025036;28;19909;-57
2022/10/08 00:16:23;;;;;;;;;;;;;;;19.42;53.10;101474.34;5024743;28;19917;-58
2022/10/08 00:18:49;;;;;;;;;;;;;;;19.42;52.92;101473.50;5024899;28;19920;-58
2022/10/08 00:21:25;;;;;;;;;;;;;;;19.41;52.81;101480.75;5024301;28;19913;-59
2022/10/08 00:23:50;;;;;;;;;;;;;;;19.40;52.73;101476.34;5017276;28;19913;-59
2022/10/08 00:26:16;;;;;;;;;;;;;;;19.41;52.88;101478.06;5007005;28;19916;-57
2022/10/08 00:28:42;;;;;;;;;;;;;;;19.41;52.83;101483.44;5024303;28;19913;-57
2022/10/08 00:31:09;;;;;;;;;;;;;;;19.40;52.80;101486.28;5024329;28;19920;-57
2022/10/08 00:33:35;;;;;;;;;;;;;;;19.40;52.82;101491.69;5024662;28;19993;-58
2022/10/08 00:36:01;;;;;;;;;;;;;;;19.40;53.10;101480.91;5024815;28;19956;-56
2022/10/08 00:38:26;;;;;;;;;;;;;;;19.39;52.74;101484.59;5024285;28;19909;-56
2022/10/08 00:40:51;;;;;;;;;;;;;;;19.39;52.81;101481.91;5024224;28;19943;-57
2022/10/08 00:43:16;;;;;;;;;;;;;;;19.39;52.94;101487.28;5023843;28;19909;-57
2022/10/08 00:45:43;;;;;;;;;;;;;;;19.39;52.97;101487.28;5024553;28;20309;-57
2022/10/08 00:48:19;;;;;;;;;;;;;;;19.38;53.02;101491.00;5006840;28;19995;-57
2022/10/08 00:50:45;;;;;;;;;;;;;;;19.38;52.85;101491.00;4999030;28;19944;-59
2022/10/08 00:53:10;;;;;;;;;;;;;;;19.37;52.68;101497.38;5024311;28;19910;-57
2022/10/08 00:55:37;;;;;;;;;;;;;;;19.37;52.97;101495.56;5024256;28;20381;-58
2022/10/08 00:58:04;;;;;;;;;;;;;;;19.37;52.75;101506.34;5006186;28;19913;-58
2022/10/08 01:00:30;;;;;;;;;;;;;;;19.38;52.91;101507.19;5023854;28;19909;-58
2022/10/08 01:02:55;;;;;;;;;;;;;;;19.37;52.68;101505.47;5024299;28;19916;-58
2022/10/08 01:05:46;;;;;;;;;;;;;;;19.36;52.85;101506.47;5023932;28;19917;-58
2022/10/08 01:08:11;;;;;;;;;;;;;;;19.36;53.03;101509.19;5021574;28;19963;-57
2022/10/08 01:10:57;;;;;;;;;;;;;;;19.35;52.83;101510.19;5028003;28;19957;-58
2022/10/08 01:13:40;;;;;;;;;;;;;;;19.35;52.70;101521.81;5027644;28;19909;-57
2022/10/08 01:16:11;;;;;;;;;;;;;;;19.35;52.91;101512.88;5010729;28;19917;-58
2022/10/08 01:18:49;;;;;;;;;;;;;;;19.35;52.73;101518.28;5028030;28;19919;-58
2022/10/08 01:21:42;;;;;;;;;;;;;;;19.34;52.88;101513.88;5010308;28;19966;-58
2022/10/08 01:24:15;;;;;;;;;;;;;;;19.34;52.68;101508.50;5004936;28;20015;-59
2022/10/08 01:26:59;;;;;;;;;;;;;;;19.33;52.97;101509.50;5015759;28;19916;-59
2022/10/08 01:29:29;;;;;;;;;;;;;;;19.33;52.84;101515.75;5027656;28;19928;-58
2022/10/08 01:31:57;;;;;;;;;;;;;;;19.32;52.93;101495.16;5009862;28;19914;-58
2022/10/08 01:34:41;;;;;;;;;;;;;;;19.32;52.82;101486.22;5010026;28;19952;-58
2022/10/08 01:37:07;;;;;;;;;;;;;;;19.31;52.88;101485.38;5027686;28;19996;-57
2022/10/08 01:39:33;;;;;;;;;;;;;;;19.32;52.56;101480.84;5027442;28;19924;-58
2022/10/08 01:41:59;;;;;;;;;;;;;;;19.32;52.97;101483.53;5009677;28;20489;-58
2022/10/08 01:44:32;;;;;;;;;;;;;;;19.30;52.67;101475.59;5009780;28;19918;-57
2022/10/08 01:46:58;;;;;;;;;;;;;;;19.31;52.86;101477.28;5010273;28;19909;-58
2022/10/08 01:49:23;;;;;;;;;;;;;;;19.30;52.94;101472.91;5027554;28;19917;-58
2022/10/08 01:51:52;;;;;;;;;;;;;;;19.30;52.89;101485.56;5009414;28;19920;-58
2022/10/08 01:54:18;;;;;;;;;;;;;;;19.29;52.77;101482.00;5009964;28;19909;-58
2022/10/08 01:56:43;;;;;;;;;;;;;;;19.30;52.87;101491.78;5027160;28;19959;-56
2022/10/08 01:59:16;;;;;;;;;;;;;;;19.29;52.94;101487.41;5009810;28;20334;-56
2022/10/08 02:01:59;;;;;;;;;;;;;;;19.29;52.65;101491.94;5009636;28;19944;-57
2022/10/08 02:04:35;;;;;;;;;;;;;;;19.29;52.71;101500.03;5009551;28;20465;-55
2022/10/08 02:07:03;;;;;;;;;;;;;;;19.28;52.68;101495.63;5027130;28;19916;-55
2022/10/08 02:09:29;;;;;;;;;;;;;;;19.28;52.63;101499.16;5027217;28;19909;-56
2022/10/08 02:11:54;;;;;;;;;;;;;;;19.28;52.83;101490.22;5026598;28;19964;-57
2022/10/08 02:14:20;;;;;;;;;;;;;;;19.27;52.59;101486.69;5026816;28;19913;-58
2022/10/08 02:16:50;;;;;;;;;;;;;;;19.27;52.92;101491.25;5027061;28;19914;-58
2022/10/08 02:19:20;;;;;;;;;;;;;;;19.27;52.81;101497.47;5026234;28;19909;-57
2022/10/08 02:21:45;;;;;;;;;;;;;;;19.27;52.98;101499.34;5026603;28;19953;-57
2022/10/08 02:24:12;;;;;;;;;;;;;;;19.25;52.85;101496.81;5009349;28;19910;-58
2022/10/08 02:26:39;;;;;;;;;;;;;;;19.26;52.96;101498.50;5026719;28;19913;-57
2022/10/08 02:29:07;;;;;;;;;;;;;;;19.26;52.67;101505.75;5026781;28;19928;-58
2022/10/08 02:31:49;;;;;;;;;;;;;;;19.25;52.52;101495.97;5008709;28;19915;-58
2022/10/08 02:34:14;;;;;;;;;;;;;;;19.25;52.96;101502.19;5009312;28;20396;-58
2022/10/08 02:36:40;;;;;;;;;;;;;;;19.25;52.73;101506.75;5026472;28;19913;-57
2022/10/08 02:39:05;;;;;;;;;;;;;;;19.24;52.80;101511.25;5026449;28;19925;-58
2022/10/08 02:41:31;;;;;;;;;;;;;;;19.23;52.86;101513.13;5026195;28;19909;-58
2022/10/08 02:43:57;;;;;;;;;;;;;;;19.24;52.84;101513.97;5008417;28;19964;-58
2022/10/08 02:46:23;;;;;;;;;;;;;;;19.23;52.85;101510.44;5026380;28;19909;-57
2022/10/08 02:48:51;;;;;;;;;;;;;;;19.22;52.59;101507.91;5026727;28;19909;-57
2022/10/08 02:51:17;;;;;;;;;;;;;;;19.22;52.93;101506.03;5008470;28;19937;-58
2022/10/08 02:53:44;;;;;;;;;;;;;;;19.22;52.72;101507.91;5026339;28;19916;-57
2022/10/08 02:56:09;;;;;;;;;;;;;;;19.21;52.93;101512.44;5008914;28;20382;-56
2022/10/08 02:58:34;;;;;;;;;;;;;;;19.22;52.62;101515.97;5025756;28;19910;-57
2022/10/08 03:01:08;;;;;;;;;;;;;;;19.22;52.87;101518.69;5008310;28;19916;-58
2022/10/08 03:03:34;;;;;;;;;;;;;;;19.20;52.81;101524.22;5008583;28;20402;-57
2022/10/08 03:06:01;;;;;;;;;;;;;;;19.20;52.95;101521.53;5008549;28;19932;-57
2022/10/08 03:08:26;;;;;;;;;;;;;;;19.20;52.68;101521.53;5008564;28;19909;-56
2022/10/08 03:10:51;;;;;;;;;;;;;;;19.21;52.62;101522.38;5007975;28;19913;-55
2022/10/08 03:13:17;;;;;;;;;;;;;;;19.19;52.84;101521.69;5009534;28;20025;-58
2022/10/08 03:15:43;;;;;;;;;;;;;;;19.19;52.82;101527.91;5024850;28;19913;-56
2022/10/08 03:18:09;;;;;;;;;;;;;;;19.18;52.74;101520.84;5024760;28;19909;-56
2022/10/08 03:20:44;;;;;;;;;;;;;;;19.18;52.88;101522.69;5024419;28;19932;-59
2022/10/08 03:23:09;;;;;;;;;;;;;;;19.18;52.72;101525.38;5025885;28;20743;-56
2022/10/08 03:25:34;;;;;;;;;;;;;;;19.17;52.63;101529.94;5024529;28;19996;-58
2022/10/08 03:28:00;;;;;;;;;;;;;;;19.18;52.77;101522.69;5025399;28;19917;-57
2022/10/08 03:30:25;;;;;;;;;;;;;;;19.17;52.83;101526.41;5025329;28;19913;-56
2022/10/08 03:32:50;;;;;;;;;;;;;;;19.17;52.56;101529.09;5025823;28;19913;-57
2022/10/08 03:35:15;;;;;;;;;;;;;;;19.16;52.92;101522.00;5025534;28;19916;-56
2022/10/08 03:37:40;;;;;;;;;;;;;;;19.16;52.90;101530.09;5024732;28;19909;-57
2022/10/08 03:40:06;;;;;;;;;;;;;;;19.16;52.80;101524.72;5024853;28;19984;-57
2022/10/08 03:42:31;;;;;;;;;;;;;;;19.15;52.66;101520.28;5025070;28;19920;-54
2022/10/08 03:44:56;;;;;;;;;;;;;;;19.15;52.58;101529.22;5025511;28;19964;-56
2022/10/08 03:47:21;;;;;;;;;;;;;;;19.15;52.69;101536.47;5025044;28;20297;-57
2022/10/08 03:49:47;;;;;;;;;;;;;;;19.15;52.77;101533.78;5024993;28;20317;-56
2022/10/08 03:52:12;;;;;;;;;;;;;;;19.14;52.80;101542.88;5025074;28;19914;-56
2022/10/08 03:54:37;;;;;;;;;;;;;;;19.13;52.75;101538.47;5025034;28;19972;-57
2022/10/08 03:57:02;;;;;;;;;;;;;;;19.12;52.85;101537.63;5024983;28;19913;-57
2022/10/08 03:59:27;;;;;;;;;;;;;;;19.13;52.59;101550.09;5024907;28;19932;-56
2022/10/08 04:01:53;;;;;;;;;;;;;;;19.12;52.71;101543.03;5024797;28;20408;-57
2022/10/08 04:04:18;;;;;;;;;;;;;;;19.13;52.60;101554.66;5025218;28;19975;-57
2022/10/08 04:06:43;;;;;;;;;;;;;;;19.12;52.84;101556.50;5024366;28;19909;-57
2022/10/08 04:09:09;;;;;;;;;;;;;;;19.11;52.88;101554.78;5025056;28;19936;-57
2022/10/08 04:11:34;;;;;;;;;;;;;;;19.11;52.75;101556.63;5024632;28;19914;-57
2022/10/08 04:13:59;;;;;;;;;;;;;;;19.11;52.65;101567.44;5024633;28;20577;-57
2022/10/08 04:16:25;;;;;;;;;;;;;;;19.11;52.86;101562.03;5025041;28;19928;-55
2022/10/08 04:18:50;;;;;;;;;;;;;;;19.10;52.87;101566.59;5025006;28;19909;-56
2022/10/08 04:21:16;;;;;;;;;;;;;;;19.10;52.51;101563.03;5024564;28;19916;-56
2022/10/08 04:23:41;;;;;;;;;;;;;;;19.09;52.67;101559.50;5024758;28;19909;-57
2022/10/08 04:26:07;;;;;;;;;;;;;;;19.09;52.83;101566.75;5013657;28;19914;-58
2022/10/08 04:28:34;;;;;;;;;;;;;;;19.10;52.70;101568.44;5009649;28;20471;-57
2022/10/08 04:31:00;;;;;;;;;;;;;;;19.09;52.88;101566.75;5024102;28;19917;-57
2022/10/08 04:33:25;;;;;;;;;;;;;;;19.08;52.80;101565.91;5024714;28;19913;-58
2022/10/08 04:35:51;;;;;;;;;;;;;;;19.07;52.70;101572.28;5024641;28;19960;-58
2022/10/08 04:38:16;;;;;;;;;;;;;;;19.07;52.90;101571.44;5024534;28;19913;-57
2022/10/08 04:40:41;;;;;;;;;;;;;;;19.07;52.68;101576.81;5023355;28;19928;-58
2022/10/08 04:43:06;;;;;;;;;;;;;;;19.06;52.75;101578.66;5023755;28;19980;-58
2022/10/08 04:45:31;;;;;;;;;;;;;;;19.06;52.82;101585.91;5024502;28;19945;-58
2022/10/08 04:47:56;;;;;;;;;;;;;;;19.06;52.65;101591.31;5024174;28;19910;-58
2022/10/08 04:50:22;;;;;;;;;;;;;;;19.05;52.58;101585.06;5023892;28;19941;-56
2022/10/08 04:52:47;;;;;;;;;;;;;;;19.05;52.80;101592.31;5023989;28;19913;-58
2022/10/08 04:55:12;;;;;;;;;;;;;;;19.04;52.74;101586.06;5024216;28;19933;-57
2022/10/08 04:57:37;;;;;;;;;;;;;;;19.04;52.67;101585.22;5022969;28;19909;-57
2022/10/08 05:00:03;;;;;;;;;;;;;;;19.04;52.64;101590.63;5023799;28;19963;-57
2022/10/08 05:02:29;;;;;;;;;;;;;;;19.03;52.67;101588.91;5013852;28;20003;-56
2022/10/08 05:04:54;;;;;;;;;;;;;;;19.03;52.88;101588.91;5023477;28;20413;-56
2022/10/08 05:07:19;;;;;;;;;;;;;;;19.04;52.98;101587.94;5021372;28;19910;-58
2022/10/08 05:09:44;;;;;;;;;;;;;;;19.02;52.78;101588.06;5023537;28;20015;-54
2022/10/08 05:12:09;;;;;;;;;;;;;;;19.01;52.81;101594.47;5023361;28;19918;-56
2022/10/08 05:14:34;;;;;;;;;;;;;;;19.01;52.73;101594.47;5021027;28;19910;-57
2022/10/08 05:17:00;;;;;;;;;;;;;;;19.01;52.85;101596.31;5024023;28;19916;-57
2022/10/08 05:19:25;;;;;;;;;;;;;;;19.01;52.72;101604.41;5023917;28;19909;-57
2022/10/08 05:21:50;;;;;;;;;;;;;;;19.01;52.73;101604.41;5021599;28;19909;-57
2022/10/08 05:24:15;;;;;;;;;;;;;;;19.01;52.87;101602.53;5023702;28;19920;-55
2022/10/08 05:26:40;;;;;;;;;;;;;;;19.02;52.96;101611.47;5022820;28;19964;-57
2022/10/08 05:29:05;;;;;;;;;;;;;;;19.00;53.03;101614.31;5023010;28;19913;-56
2022/10/08 05:31:31;;;;;;;;;;;;;;;19.01;52.91;101613.31;5022546;28;19929;-57
2022/10/08 05:33:56;;;;;;;;;;;;;;;19.01;53.05;101620.56;5023235;28;19955;-55
2022/10/08 05:36:23;;;;;;;;;;;;;;;19.01;52.85;101624.09;5023455;28;19913;-54
2022/10/08 05:38:48;;;;;;;;;;;;;;;19.01;53.05;101624.09;5023227;28;19916;-57
2022/10/08 05:41:18;;;;;;;;;;;;;;;19.00;53.07;101618.88;5022674;28;19948;-55
2022/10/08 05:43:43;;;;;;;;;;;;;;;19.01;53.24;101629.50;5023391;28;19917;-54
2022/10/08 05:46:09;;;;;;;;;;;;;;;19.00;53.06;101643.13;5023385;28;19910;-57
2022/10/08 05:48:34;;;;;;;;;;;;;;;19.00;53.23;101646.66;5023412;28;19910;-56
2022/10/08 05:51:03;;;;;;;;;;;;;;;19.00;53.21;101643.97;5022890;28;19977;-56
2022/10/08 05:53:29;;;;;;;;;;;;;;;19.00;53.31;101638.59;5023544;28;19941;-56
2022/10/08 05:56:00;;;;;;;;;;;;;;;19.00;53.09;101645.81;5018555;28;19945;-53
2022/10/08 05:58:26;;;;;;;;;;;;;;;19.01;53.28;101647.50;4989095;28;19957;-58
2022/10/08 06:01:01;;;;;;;;;;;;;;;19.01;53.31;101647.50;5007207;28;19920;-55
2022/10/08 06:03:26;;;;;;;;;;;;;;;19.00;53.44;101652.06;4989898;28;19916;-56
2022/10/08 06:05:51;;;;;;;;;;;;;;;19.00;53.26;101654.75;5007038;28;19913;-55
2022/10/08 06:08:17;;;;;;;;;;;;;;;19.01;53.47;101664.53;5012517;28;19909;-55
2022/10/08 06:10:49;;;;;;;;;;;;;;;19.00;53.35;101672.78;5022418;28;19914;-55
2022/10/08 06:13:14;;;;;;;;;;;;;;;19.00;53.54;101668.22;5021844;28;19916;-55
2022/10/08 06:15:39;;;;;;;;;;;;;;;19.00;53.47;101675.47;5007517;28;19910;-56
2022/10/08 06:18:04;;;;;;;;;;;;;;;18.98;53.70;101676.44;5007397;28;19914;-53
2022/10/08 06:20:29;;;;;;;;;;;;;;;19.00;53.59;101686.25;5006802;28;19909;-53
2022/10/08 06:22:55;;;;;;;;;;;;;;;19.00;53.68;101697.03;5007265;28;19918;-56
2022/10/08 06:25:20;;;;;;;;;;;;;;;18.99;53.61;101696.19;5007195;28;19917;-56
2022/10/08 06:27:45;;;;;;;;;;;;;;;19.00;53.66;101700.56;5005951;28;19917;-58
2022/10/08 06:30:10;;;;;;;;;;;;;;;19.00;53.54;101710.50;5007006;28;19914;-57
2022/10/08 06:32:35;;;;;;;;;;;;;;;18.99;53.86;101709.66;5006765;28;20014;-58
2022/10/08 06:35:01;;;;;;;;;;;;;;;19.00;53.58;101711.34;5006970;28;19914;-56
2022/10/08 06:37:26;;;;;;;;;;;;;;;18.99;53.74;101717.75;5006730;28;19941;-58
2022/10/08 06:39:51;;;;;;;;;;;;;;;19.01;53.61;101723.81;5024333;28;19927;-58
2022/10/08 06:42:16;;;;;;;;;;;;;;;19.01;53.85;101726.50;5045652;28;19909;-57
2022/10/08 06:44:41;;;;;;;;;;;;;;;19.01;53.55;101731.06;5046636;28;20416;-58
2022/10/08 06:47:06;;;;;;;;;;;;;;;19.01;53.65;101731.91;5045933;28;20360;-56
2022/10/08 06:49:33;;;;;;;;;;;;;;;19.00;53.91;101735.59;5046476;28;19984;-56
2022/10/08 06:51:58;;;;;;;;;;;;;;;19.01;53.79;101733.75;5045636;28;19921;-58
2022/10/08 06:54:26;;;;;;;;;;;;;;;19.01;53.51;101733.75;5037295;28;19924;-58
2022/10/08 06:56:51;;;;;;;;;;;;;;;19.01;53.73;101740.00;5016975;28;19909;-58
2022/10/08 06:59:16;;;;;;;;;;;;;;;19.01;53.81;101749.94;5025675;28;19909;-59
2022/10/08 07:01:41;;;;;;;;;;;;;;;19.01;53.73;101755.31;5025677;28;19920;-59
2022/10/08 07:04:09;;;;;;;;;;;;;;;19.01;53.52;101748.06;5025747;28;19910;-59
2022/10/08 07:06:34;;;;;;;;;;;;;;;19.01;53.59;101753.47;5008492;28;20035;-59
2022/10/08 07:09:00;;;;;;;;;;;;;;;19.01;53.32;101756.16;5025591;28;19917;-59
2022/10/08 07:11:25;;;;;;;;;;;;;;;19.02;53.74;101762.41;5007377;28;19924;-59
2022/10/08 07:13:50;;;;;;;;;;;;;;;19.01;53.59;101758.84;5025231;28;19936;-59
2022/10/08 07:16:16;;;;;;;;;;;;;;;19.02;53.55;101773.19;5025997;28;19955;-59
2022/10/08 07:18:42;;;;;;;;;;;;;;;19.02;53.31;101778.56;5016999;28;19917;-59
2022/10/08 07:21:07;;;;;;;;;;;;;;;19.01;53.38;101777.72;5025352;28;19915;-58
2022/10/08 07:23:33;;;;;;;;;;;;;;;19.01;53.20;101776.88;5007820;28;19913;-59
2022/10/08 07:26:03;;;;;;;;;;;;;;;19.02;53.28;101783.97;5024929;28;19909;-60
2022/10/08 07:28:30;;;;;;;;;;;;;;;19.02;53.44;101800.13;5024732;28;19909;-59
2022/10/08 07:30:55;;;;;;;;;;;;;;;19.03;53.21;101801.81;5025160;28;19909;-59
2022/10/08 07:33:20;;;;;;;;;;;;;;;19.02;53.46;101810.91;5025498;28;19916;-59
2022/10/08 07:35:46;;;;;;;;;;;;;;;19.03;53.37;101810.78;5031035;28;19913;-59
2022/10/08 07:38:11;;;;;;;;;;;;;;;19.03;53.31;101809.91;5025521;28;20405;-58
2022/10/08 07:40:36;;;;;;;;;;;;;;;19.03;53.24;101818.88;5023854;28;19921;-59
2022/10/08 07:43:03;;;;;;;;;;;;;;;19.04;53.12;101819.72;5025008;28;19924;-60
2022/10/08 07:45:28;;;;;;;;;;;;;;;19.03;53.23;101821.56;5025444;28;19980;-59
2022/10/08 07:47:53;;;;;;;;;;;;;;;19.04;53.31;101828.63;5025358;28;19909;-59
2022/10/08 07:50:19;;;;;;;;;;;;;;;19.05;53.24;101818.72;5024619;28;19980;-59
2022/10/08 07:52:44;;;;;;;;;;;;;;;19.06;53.04;101832.03;5024753;28;19917;-58
2022/10/08 07:55:09;;;;;;;;;;;;;;;19.07;52.96;101824.78;5024099;28;19909;-59
2022/10/08 07:57:34;;;;;;;;;;;;;;;19.08;53.06;101827.34;5023957;28;20424;-59
2022/10/08 07:59:59;;;;;;;;;;;;;;;19.11;52.87;101831.59;5024311;28;19909;-59
2022/10/08 08:02:25;;;;;;;;;;;;;;;19.12;52.79;101836.84;5024758;28;19924;-59
2022/10/08 08:04:50;;;;;;;;;;;;;;;19.14;53.00;101834.84;5024807;28;19909;-59
2022/10/08 08:07:15;;;;;;;;;;;;;;;19.16;52.84;101849.03;5024650;28;19909;-59
2022/10/08 08:09:40;;;;;;;;;;;;;;;19.18;52.61;101846.19;5024445;28;19963;-58
2022/10/08 08:12:05;;;;;;;;;;;;;;;19.21;52.80;101860.22;5006675;28;19913;-59
2022/10/08 08:14:31;;;;;;;;;;;;;;;19.22;52.80;101861.06;5024898;28;19910;-59
2022/10/08 08:16:56;;;;;;;;;;;;;;;19.23;52.65;101857.38;5024364;28;19925;-59
2022/10/08 08:19:23;;;;;;;;;;;;;;;19.26;52.86;101861.63;5024480;28;19913;-58
2022/10/08 08:21:48;;;;;;;;;;;;;;;19.28;52.71;101867.69;5024152;28;19910;-58
2022/10/08 08:24:14;;;;;;;;;;;;;;;19.31;52.61;101870.13;5007106;28;19932;-59
2022/10/08 08:26:39;;;;;;;;;;;;;;;19.33;52.57;101868.13;5024289;28;19909;-59
2022/10/08 08:29:06;;;;;;;;;;;;;;;19.36;52.26;101870.50;5024095;28;19924;-59
2022/10/08 08:31:32;;;;;;;;;;;;;;;19.18;52.24;101835.41;5024071;28;19919;-59
2022/10/08 08:33:59;;;;;;;;;;;;;;;19.45;52.11;101881.28;5024441;28;19923;-59
2022/10/08 08:36:25;;;;;;;;;;;;;;;19.51;52.18;101884.38;5024422;28;19917;-59
2022/10/08 08:38:50;;;;;;;;;;;;;;;19.57;51.55;101897.25;5024149;28;19909;-58
2022/10/08 08:41:20;;;;;;;;;;;;;;;19.62;51.37;101905.78;5024086;28;19915;-59
2022/10/08 08:43:45;;;;;;;;;;;;;;;19.67;51.38;101900.81;5006669;28;19913;-59
2022/10/08 08:46:11;;;;;;;;;;;;;;;19.73;51.10;101900.19;5024481;28;19941;-58
2022/10/08 08:48:37;;;;;;;;;;;;;;;19.79;50.79;101909.53;5006572;28;19924;-58
2022/10/08 08:51:03;;;;;;;;;;;;;;;19.85;50.94;101911.66;5006149;28;19936;-59
2022/10/08 08:53:28;;;;;;;;;;;;;;;19.89;50.69;101926.53;5006776;28;19936;-60
2022/10/08 08:55:54;;;;;;;;;;;;;;;19.93;50.51;101917.13;5024089;28;19931;-58
2022/10/08 08:58:33;;;;;;;;;;;;;;;19.96;50.29;101924.91;5005662;28;19936;-59
2022/10/08 09:01:01;;;;;;;;;;;;;;;20.01;50.11;101925.34;5006841;28;19909;-59
2022/10/08 09:03:53;;;;;;;;;;;;;;;20.05;50.20;101932.13;5006334;28;19932;-59
2022/10/08 09:06:19;;;;;;;;;;;;;;;20.08;50.22;101934.50;5000310;28;19936;-59
2022/10/08 09:08:46;;;;;;;;;;;;;;;20.11;49.84;101931.50;5024198;28;19953;-58
2022/10/08 09:11:13;;;;;;;;;;;;;;;20.14;49.83;101936.63;5023747;28;19992;-59
2022/10/08 09:13:39;;;;;;;;;;;;;;;20.17;49.52;101941.69;5023713;28;19992;-60
2022/10/08 09:16:04;;;;;;;;;;;;;;;20.20;49.79;101945.94;5024234;28;19917;-58
2022/10/08 09:18:30;;;;;;;;;;;;;;;20.21;49.72;101953.03;5023808;28;19913;-60
2022/10/08 09:20:55;;;;;;;;;;;;;;;20.21;49.36;101956.59;5005922;28;19972;-59
2022/10/08 09:23:23;;;;;;;;;;;;;;;20.22;49.42;101952.06;5023912;28;19913;-59
2022/10/08 09:25:52;;;;;;;;;;;;;;;20.21;49.31;101958.44;5023890;28;19910;-59
2022/10/08 09:28:35;;;;;;;;;;;;;;;20.20;49.35;101957.59;5017924;28;19953;-59
2022/10/08 09:31:10;;;;;;;;;;;;;;;20.19;49.63;101971.25;5027535;28;20016;-59
2022/10/08 09:33:36;;;;;;;;;;;;;;;20.17;49.47;101975.94;5027844;28;19916;-59
2022/10/08 09:36:01;;;;;;;;;;;;;;;20.16;49.63;101971.56;5009979;28;20130;-60
2022/10/08 09:38:27;;;;;;;;;;;;;;;20.14;49.60;101976.28;5027827;28;19936;-59
2022/10/08 09:41:06;;;;;;;;;;;;;;;20.12;49.69;101973.69;5009665;28;19928;-59
2022/10/08 09:43:34;;;;;;;;;;;;;;;20.12;49.57;101975.56;5027447;28;20355;-58
2022/10/08 09:46:03;;;;;;;;;;;;;;;20.10;49.52;101978.41;5027672;28;19916;-58
2022/10/08 09:48:29;;;;;;;;;;;;;;;20.10;49.60;101980.28;5027424;28;19910;-59
2022/10/08 09:51:04;;;;;;;;;;;;;;;20.10;49.60;101988.38;5027073;28;19910;-59
2022/10/08 09:53:43;;;;;;;;;;;;;;;20.11;49.60;101987.38;5027480;28;20449;-59
2022/10/08 09:56:08;;;;;;;;;;;;;;;20.14;49.55;101993.31;5009533;28;19921;-59
2022/10/08 09:58:35;;;;;;;;;;;;;;;20.16;49.81;101995.84;5009144;28;19920;-58
2022/10/08 10:01:04;;;;;;;;;;;;;;;20.15;49.82;102005.81;5009506;28;19909;-59
2022/10/08 10:03:30;;;;;;;;;;;;;;;20.13;49.87;102005.09;5027252;28;19910;-58
2022/10/08 10:05:55;;;;;;;;;;;;;;;20.12;49.84;102010.66;5004233;28;19936;-58
2022/10/08 10:08:56;;;;;;;;;;;;;;;20.09;49.99;102017.22;5006860;28;19961;-58
2022/10/08 10:11:32;;;;;;;;;;;;;;;20.09;49.91;102016.34;4946278;29;19914;-59
2022/10/08 10:13:57;;;;;;;;;;;;;;;20.08;49.97;102015.50;4941091;29;19911;-59
2022/10/08 10:16:24;;;;;;;;;;;;;;;20.10;49.85;102015.38;4961693;29;19910;-59
2022/10/08 10:18:59;;;;;;;;;;;;;;;20.08;49.85;102018.19;4965718;29;19941;-59
2022/10/08 10:21:40;;;;;;;;;;;;;;;20.06;49.94;102020.22;4964869;29;19918;-58
2022/10/08 10:24:06;;;;;;;;;;;;;;;20.05;49.89;102021.22;4949828;29;19911;-58
2022/10/08 10:26:32;;;;;;;;;;;;;;;20.04;49.87;102022.19;4959523;29;19915;-59
2022/10/08 10:28:58;;;;;;;;;;;;;;;20.04;50.24;102026.75;4930161;29;20355;-58
2022/10/08 10:31:25;;;;;;;;;;;;;;;20.04;49.94;102019.50;4929940;29;20388;-58
2022/10/08 10:34:10;;;;;;;;;;;;;;;20.05;50.30;102032.03;4930559;29;19911;-59
2022/10/08 10:36:38;;;;;;;;;;;;;;;20.05;50.12;102029.31;4945909;29;19949;-58
2022/10/08 10:39:07;;;;;;;;;;;;;;;20.05;50.32;102026.63;4930257;29;19944;-59
2022/10/08 10:41:36;;;;;;;;;;;;;;;20.06;50.06;102032.88;4945119;29;19910;-59
2022/10/08 10:44:10;;;;;;;;;;;;;;;20.06;50.10;102031.00;4930255;29;19911;-59
2022/10/08 10:46:38;;;;;;;;;;;;;;;20.08;50.12;102036.25;5008983;28;19932;-58
2022/10/08 10:49:23;;;;;;;;;;;;;;;20.10;50.31;102021.63;5026351;28;20465;-59
2022/10/08 10:51:55;;;;;;;;;;;;;;;20.13;50.03;102015.91;5024982;28;19913;-58
2022/10/08 10:54:21;;;;;;;;;;;;;;;20.16;50.25;102028.25;5026428;28;19931;-59
2022/10/08 10:56:57;;;;;;;;;;;;;;;20.17;50.05;102027.25;5025878;28;20011;-59
2022/10/08 10:59:43;;;;;;;;;;;;;;;20.17;50.24;102030.78;5008283;28;19920;-59
2022/10/08 11:02:17;;;;;;;;;;;;;;;20.19;50.41;102027.97;5025758;28;19909;-58
2022/10/08 11:05:01;;;;;;;;;;;;;;;20.22;50.17;102030.38;5025972;28;20386;-58
2022/10/08 11:07:26;;;;;;;;;;;;;;;20.25;50.12;102040.00;5025420;28;19941;-58
2022/10/08 11:09:55;;;;;;;;;;;;;;;20.25;50.33;102045.41;5025803;28;19940;-58
2022/10/08 11:12:38;;;;;;;;;;;;;;;20.24;50.32;102047.25;5025665;28;20534;-58
2022/10/08 11:15:22;;;;;;;;;;;;;;;20.23;50.22;102048.28;5006292;28;20291;-59
2022/10/08 11:17:54;;;;;;;;;;;;;;;20.22;50.31;102049.28;5005983;28;19953;-58
2022/10/08 11:20:25;;;;;;;;;;;;;;;20.21;50.22;102050.25;4988034;28;19913;-59
2022/10/08 11:23:02;;;;;;;;;;;;;;;20.21;50.26;102059.19;4985929;28;19916;-59
2022/10/08 11:25:27;;;;;;;;;;;;;;;20.22;50.54;102073.59;4993165;28;19940;-59
2022/10/08 11:28:11;;;;;;;;;;;;;;;20.20;50.63;102065.63;5024629;28;19952;-58
2022/10/08 11:30:41;;;;;;;;;;;;;;;20.22;50.60;102065.47;5025211;28;19920;-58
2022/10/08 11:33:08;;;;;;;;;;;;;;;20.22;50.68;102062.78;5007614;28;19913;-59
2022/10/08 11:35:52;;;;;;;;;;;;;;;20.25;51.17;102056.22;5008047;28;19936;-58
2022/10/08 11:38:24;;;;;;;;;;;;;;;20.28;51.33;102056.78;5007498;28;19913;-57
2022/10/08 11:41:06;;;;;;;;;;;;;;;20.32;51.21;102060.88;5007248;28;20016;-59
2022/10/08 11:43:34;;;;;;;;;;;;;;;20.34;51.04;102055.31;5024832;28;19909;-58
2022/10/08 11:46:11;;;;;;;;;;;;;;;20.32;51.06;102049.22;5007368;28;19920;-58
2022/10/08 11:48:36;;;;;;;;;;;;;;;20.31;51.26;102058.34;5024691;28;20317;-58
2022/10/08 11:51:17;;;;;;;;;;;;;;;20.29;51.31;102061.16;5024196;28;20328;-58
2022/10/08 11:53:49;;;;;;;;;;;;;;;20.28;51.75;102062.16;5022927;28;19971;-57
2022/10/08 11:56:14;;;;;;;;;;;;;;;20.27;51.76;102068.59;5007248;28;19984;-58
2022/10/08 11:58:39;;;;;;;;;;;;;;;20.26;51.63;102064.16;5006736;28;19921;-59
2022/10/08 12:01:05;;;;;;;;;;;;;;;20.26;51.67;102063.31;5024494;28;19921;-58
2022/10/08 12:03:32;;;;;;;;;;;;;;;20.25;51.94;102064.31;5024895;28;19909;-58
2022/10/08 12:06:12;;;;;;;;;;;;;;;20.25;52.11;102053.50;5024746;28;19973;-59
2022/10/08 12:08:49;;;;;;;;;;;;;;;20.26;52.20;102063.31;5001999;28;19955;-57
2022/10/08 12:11:29;;;;;;;;;;;;;;;20.26;52.11;102063.31;5017322;28;19914;-58
2022/10/08 12:14:10;;;;;;;;;;;;;;;20.26;51.92;102050.66;5023164;28;19935;-59
2022/10/08 12:16:48;;;;;;;;;;;;;;;20.28;52.12;102072.13;5024335;28;19936;-57
2022/10/08 12:19:31;;;;;;;;;;;;;;;20.30;52.04;102062.00;5024035;28;19948;-58
2022/10/08 12:21:56;;;;;;;;;;;;;;;20.31;51.85;102078.09;5023743;28;19910;-59
2022/10/08 12:24:37;;;;;;;;;;;;;;;20.32;51.92;102063.56;5023573;28;19972;-58
2022/10/08 12:27:21;;;;;;;;;;;;;;;20.32;52.16;102062.72;5023907;28;19982;-58
2022/10/08 12:29:59;;;;;;;;;;;;;;;20.32;52.01;102068.13;5023678;28;19944;-60
2022/10/08 12:32:25;;;;;;;;;;;;;;;20.29;52.24;102077.38;4990799;28;19917;-58
2022/10/08 12:34:50;;;;;;;;;;;;;;;20.29;52.10;102071.97;5024208;28;19916;-59
2022/10/08 12:37:22;;;;;;;;;;;;;;;20.26;52.39;102072.25;5023913;28;19909;-59
2022/10/08 12:39:47;;;;;;;;;;;;;;;20.26;52.37;102076.81;5023435;28;20123;-58
2022/10/08 12:42:19;;;;;;;;;;;;;;;20.24;52.07;102082.38;5005964;28;20402;-57